Estación Meteorológica Peña el Pijo (Robertgarden) [ 09/24/17 17:49:27 CEST ]

Fecha Hora Presion(HPa) Temp (°C) Humedad % Rocio (°C) Viento ( m/s) Direccion Lluvia 1Hora(mm) Lluvia 24H(mm) LLuvia Total(mm)
2017-Sep-14 01:02:03 1015.000 12.9 63 6.0         1457.65
2017-Sep-14 02:01:34 1014.500 11.8 67 5.8         1457.65
2017-Sep-14 03:01:44 1014.500 10.9 69 5.5         1457.65
2017-Sep-14 04:01:40 1014.200 9.9 71 4.9         1457.65
2017-Sep-14 05:01:37 1013.800 9.3 73 4.7         1457.65
2017-Sep-14 06:01:42 1013.700 9.1 74 4.7         1457.65
2017-Sep-14 07:01:49 1013.300 8.6 76 4.6         1457.65
2017-Sep-14 08:01:49 1013.300 8.3 78 4.7         1457.65
2017-Sep-14 09:01:44 1013.500 10.8 82 7.8         1457.65
2017-Sep-14 10:01:48 1013.500 22.2 62 14.6         1457.65
2017-Sep-14 11:01:48 1013.600 27.3 35 10.4         1457.65
2017-Sep-14 12:01:39 1013.300 29.4 28 8.9         1457.65
2017-Sep-14 13:01:55 1012.800 31.0 25 8.4 2.1 NNW     1457.65
2017-Sep-14 14:01:58 1012.200 31.3 22 6.9 0.9 SSW     1457.65
2017-Sep-14 15:01:44 1011.500 32.3 19 5.6         1457.65
2017-Sep-14 16:01:51 1010.700 32.4 19 5.6         1457.65
2017-Sep-14 17:01:55 1010.100 32.7 19 5.9         1457.65
2017-Sep-14 18:01:41 1009.700 31.1 20 5.6         1457.65
2017-Sep-14 19:01:40 1009.500 28.8 22 4.8         1457.65
2017-Sep-14 20:01:51 1009.800 25.4 27 4.9         1457.65
2017-Sep-14 21:01:46 1010.500 20.1 36 4.4         1457.65
2017-Sep-14 22:01:43 1010.500 18.6 39 4.3         1457.65
2017-Sep-14 23:01:46 1010.300 18.2 39 4.0         1457.65

Temperatura Máxima:32°    Temperatura Mínima:
Presión Máxima:1015.000 Hpa    Presión Mínima:1009.500 Hpa


Volver